Time;durP1;ratioP1;P1;durP2;ratioP2;P2;SDS_P1;SDS_P2;PMS_P1;PMS_P2;Temp;Humidity;BMP_temperature;BMP_pressure;BME280_temperature;BME280_humidity;BME280_pressure;Samples;Min_cycle;Max_cycle;Signal;HPM_P1;HPM_P2
2022/03/25 00:00:42;;;;;;;23.48;11.27;;;;;;;7.99;58.07;102863.38;5014325;28;20040;-81
2022/03/25 00:03:07;;;;;;;22.23;10.73;;;;;;;7.92;58.01;102859.75;5014233;28;20149;-81
2022/03/25 00:05:36;;;;;;;22.33;11.27;;;;;;;7.88;58.50;102866.50;5014565;28;20087;-81
2022/03/25 00:08:02;;;;;;;21.75;10.65;;;;;;;7.84;58.54;102862.09;5014840;28;20115;-81
2022/03/25 00:10:27;;;;;;;21.98;10.93;;;;;;;7.75;58.70;102858.38;5017016;28;20336;-82
2022/03/25 00:12:53;;;;;;;24.23;12.13;;;;;;;7.76;58.44;102865.28;5035186;28;20024;-82
2022/03/25 00:15:20;;;;;;;22.63;10.97;;;;;;;7.67;58.57;102850.38;5033692;28;20402;-82
2022/03/25 00:17:46;;;;;;;22.95;10.98;;;;;;;7.69;59.06;102861.66;5033268;28;20427;-82
2022/03/25 00:20:11;;;;;;;22.07;10.77;;;;;;;7.66;59.04;102866.72;5033669;28;20025;-82
2022/03/25 00:22:37;;;;;;;22.95;10.57;;;;;;;7.60;59.22;102864.81;5033573;28;20023;-82
2022/03/25 00:25:05;;;;;;;22.00;11.17;;;;;;;7.56;59.69;102863.00;5033291;28;20080;-82
2022/03/25 00:27:35;;;;;;;22.30;10.95;;;;;;;7.50;59.75;102866.28;5033528;28;20067;-82
2022/03/25 00:30:01;;;;;;;21.77;10.75;;;;;;;7.47;59.44;102866.19;5033822;28;20057;-81
2022/03/25 00:32:26;;;;;;;21.60;10.18;;;;;;;7.44;60.02;102873.84;5032665;28;20105;-82
2022/03/25 00:34:52;;;;;;;23.52;10.70;;;;;;;7.40;59.77;102866.84;5029947;28;20427;-82
2022/03/25 00:37:17;;;;;;;23.53;11.07;;;;;;;7.39;59.69;102865.94;5013665;28;20057;-81
2022/03/25 00:39:44;;;;;;;23.10;10.98;;;;;;;7.34;60.30;102866.63;5012788;28;20277;-82
2022/03/25 00:42:10;;;;;;;22.27;10.40;;;;;;;7.32;59.98;102873.47;5013335;28;20467;-82
2022/03/25 00:44:35;;;;;;;23.58;11.48;;;;;;;7.25;59.54;102868.09;5013421;28;20053;-82
2022/03/25 00:47:02;;;;;;;23.10;11.05;;;;;;;7.19;59.92;102857.59;5018136;28;20036;-81
2022/03/25 00:49:29;;;;;;;23.67;12.18;;;;;;;7.18;60.03;102866.19;5033059;28;20104;-82
2022/03/25 00:51:55;;;;;;;23.52;11.63;;;;;;;7.16;60.26;102869.50;5032726;28;20051;-82
2022/03/25 00:54:20;;;;;;;23.07;11.50;;;;;;;7.08;60.33;102864.13;5032497;28;20104;-82
2022/03/25 00:56:45;;;;;;;22.50;10.97;;;;;;;7.08;60.51;102867.59;5033402;28;20383;-82
2022/03/25 00:59:10;;;;;;;23.08;11.35;;;;;;;7.03;60.63;102857.94;5028840;28;20048;-82
2022/03/25 01:01:37;;;;;;;23.85;11.68;;;;;;;7.00;60.54;102870.72;5012402;28;20030;-82
2022/03/25 01:04:03;;;;;;;23.27;11.55;;;;;;;6.94;60.78;102863.66;5013426;28;20045;-82
2022/03/25 01:06:28;;;;;;;22.90;11.00;;;;;;;6.89;60.77;102860.06;5011700;28;20030;-82
2022/03/25 01:08:53;;;;;;;22.75;11.32;;;;;;;6.86;60.89;102860.88;5026515;28;20047;-82
2022/03/25 01:11:19;;;;;;;22.20;10.98;;;;;;;6.83;61.19;102862.44;5026599;28;20022;-82
2022/03/25 01:13:44;;;;;;;22.65;11.43;;;;;;;6.80;61.18;102868.41;5012090;28;20084;-82
2022/03/25 01:16:10;;;;;;;23.63;11.00;;;;;;;6.76;60.95;102867.41;5013414;28;20034;-82
2022/03/25 01:18:35;;;;;;;22.47;10.60;;;;;;;6.72;61.30;102868.13;5012795;28;20037;-82
2022/03/25 01:21:00;;;;;;;22.70;11.17;;;;;;;6.70;61.19;102866.34;5012459;28;20417;-82
2022/03/25 01:23:26;;;;;;;22.80;11.23;;;;;;;6.64;61.73;102861.84;5017970;28;20026;-82
2022/03/25 01:25:52;;;;;;;23.70;11.77;;;;;;;6.60;61.38;102862.56;5032514;28;20437;-82
2022/03/25 01:28:18;;;;;;;22.53;11.07;;;;;;;6.57;62.18;102868.50;5031725;28;20030;-82
2022/03/25 01:30:44;;;;;;;23.60;11.32;;;;;;;6.54;61.33;102858.06;5032633;28;20036;-82
2022/03/25 01:33:10;;;;;;;23.57;11.10;;;;;;;6.54;62.00;102860.66;5032582;28;20022;-82
2022/03/25 01:35:36;;;;;;;21.92;10.32;;;;;;;6.50;61.95;102863.97;5028673;28;20045;-82
2022/03/25 01:38:01;;;;;;;21.65;10.40;;;;;;;6.47;61.60;102858.69;5013215;28;20413;-82
2022/03/25 01:40:42;;;;;;;22.35;10.90;;;;;;;6.41;61.76;102854.19;5012562;28;20022;-82
2022/03/25 01:43:17;;;;;;;21.35;10.35;;;;;;;6.36;62.34;102849.72;5012111;28;20030;-82
2022/03/25 01:45:42;;;;;;;22.63;10.63;;;;;;;6.36;61.87;102854.88;5013055;28;20044;-82
2022/03/25 01:48:16;;;;;;;23.77;11.27;;;;;;;6.29;62.08;102846.94;5017952;28;20022;-82
2022/03/25 01:50:45;;;;;;;20.83;9.75;;;;;;;6.27;62.55;102860.56;5031644;28;20021;-82
2022/03/25 01:53:13;;;;;;;19.63;9.10;;;;;;;6.22;62.38;102849.25;5032487;28;20104;-82
2022/03/25 01:55:47;;;;;;;20.90;9.10;;;;;;;6.21;63.00;102858.66;5031702;28;20060;-81
2022/03/25 01:58:12;;;;;;;20.73;9.50;;;;;;;6.18;62.44;102859.44;5032466;28;20053;-82
2022/03/25 02:00:38;;;;;;;21.77;10.18;;;;;;;6.14;62.89;102854.13;5024552;28;20382;-82
2022/03/25 02:03:04;;;;;;;20.45;9.18;;;;;;;6.15;62.81;102867.06;5012354;28;20040;-82
2022/03/25 02:05:29;;;;;;;20.60;9.25;;;;;;;6.13;62.72;102865.25;5012469;28;20084;-82
2022/03/25 02:07:55;;;;;;;21.02;9.35;;;;;;;6.08;62.93;102861.66;5012608;28;20426;-82
2022/03/25 02:10:21;;;;;;;20.90;9.68;;;;;;;6.07;63.26;102863.34;5011763;28;20422;-81
2022/03/25 02:12:49;;;;;;;21.58;9.52;;;;;;;6.04;62.92;102860.63;5022065;28;20025;-82
2022/03/25 02:15:15;;;;;;;20.13;9.15;;;;;;;6.01;63.16;102864.00;5032386;28;20030;-82
2022/03/25 02:17:40;;;;;;;20.65;9.80;;;;;;;5.99;62.73;102867.31;5031412;28;20027;-82
2022/03/25 02:20:08;;;;;;;22.27;10.60;;;;;;;5.97;63.00;102861.22;5032483;28;20021;-82
2022/03/25 02:22:39;;;;;;;21.02;9.57;;;;;;;5.93;63.82;102867.06;5032596;28;20096;-82
2022/03/25 02:25:08;;;;;;;20.45;9.35;;;;;;;5.89;63.37;102858.34;5022586;28;20045;-81
2022/03/25 02:27:38;;;;;;;20.65;9.38;;;;;;;5.85;63.13;102862.53;5015930;28;20022;-82
2022/03/25 02:30:06;;;;;;;20.67;9.55;;;;;;;5.83;63.11;102860.72;5016418;28;20034;-81
2022/03/25 02:32:32;;;;;;;21.00;9.48;;;;;;;5.78;63.46;102852.81;5015074;28;20061;-81
2022/03/25 02:34:57;;;;;;;20.52;8.98;;;;;;;5.77;63.45;102857.91;5016090;28;20520;-82
2022/03/25 02:37:24;;;;;;;19.52;8.95;;;;;;;5.73;63.66;102854.34;5029601;28;20087;-81
2022/03/25 02:39:50;;;;;;;20.63;9.73;;;;;;;5.70;63.38;102855.09;5034629;28;20048;-81
2022/03/25 02:42:15;;;;;;;20.60;9.27;;;;;;;5.66;63.64;102858.38;5035881;28;20462;-82
2022/03/25 02:44:40;;;;;;;19.80;9.27;;;;;;;5.62;63.60;102850.47;5035424;28;20032;-82
2022/03/25 02:47:06;;;;;;;20.73;9.50;;;;;;;5.59;63.98;102853.81;5035037;28;20032;-82
2022/03/25 02:49:31;;;;;;;20.52;9.57;;;;;;;5.59;64.07;102858.97;5020640;28;20118;-82
2022/03/25 02:51:57;;;;;;;21.02;9.98;;;;;;;5.55;63.13;102854.50;5016347;28;20026;-81
2022/03/25 02:54:22;;;;;;;20.63;9.10;;;;;;;5.53;63.76;102861.31;5014905;28;20076;-82
2022/03/25 02:56:47;;;;;;;20.35;9.13;;;;;;;5.46;63.74;102855.03;5016470;28;20022;-82
2022/03/25 02:59:12;;;;;;;20.77;9.80;;;;;;;5.46;63.97;102851.59;5014327;28;20441;-81
2022/03/25 03:01:38;;;;;;;20.23;8.95;;;;;;;5.41;63.57;102854.00;5015527;28;20106;-81
2022/03/25 03:04:03;;;;;;;22.60;10.45;;;;;;;5.40;63.59;102853.09;5015670;28;20057;-82
2022/03/25 03:06:28;;;;;;;22.27;10.30;;;;;;;5.40;63.71;102859.97;5014586;28;20109;-82
2022/03/25 03:08:53;;;;;;;19.83;9.27;;;;;;;5.35;64.14;102854.63;5015129;28;20044;-82
2022/03/25 03:11:19;;;;;;;21.60;9.82;;;;;;;5.33;63.96;102857.97;5015691;28;20021;-82
2022/03/25 03:13:44;;;;;;;21.40;9.43;;;;;;;5.31;63.97;102862.19;5029695;28;20386;-82
2022/03/25 03:16:10;;;;;;;21.20;10.23;;;;;;;5.25;63.74;102857.69;5035102;28;20057;-82
2022/03/25 03:18:35;;;;;;;22.08;10.25;;;;;;;5.20;63.90;102857.50;5035051;28;20068;-82
2022/03/25 03:21:00;;;;;;;22.67;10.80;;;;;;;5.21;63.98;102868.66;5034007;28;20112;-82
2022/03/25 03:23:28;;;;;;;23.10;10.65;;;;;;;5.17;64.23;102867.66;5034817;28;20037;-82
2022/03/25 03:25:53;;;;;;;21.92;10.27;;;;;;;5.14;64.03;102857.25;5021491;28;20029;-82
2022/03/25 03:28:19;;;;;;;22.85;10.43;;;;;;;5.12;64.19;102853.75;5013956;28;20378;-82
2022/03/25 03:30:44;;;;;;;21.48;9.95;;;;;;;5.08;64.05;102860.44;5015061;28;20029;-82
2022/03/25 03:33:09;;;;;;;22.33;10.75;;;;;;;5.02;64.21;102849.91;5014989;28;20030;-82
2022/03/25 03:35:35;;;;;;;22.40;10.55;;;;;;;5.00;64.12;102856.69;5013244;28;20038;-82
2022/03/25 03:38:03;;;;;;;22.67;10.77;;;;;;;4.97;64.60;102850.56;5030335;28;20028;-81
2022/03/25 03:40:28;;;;;;;23.23;10.98;;;;;;;4.92;64.00;102851.22;5034416;28;20780;-81
2022/03/25 03:42:53;;;;;;;21.90;10.40;;;;;;;4.91;64.63;102851.19;5033722;28;20040;-82
2022/03/25 03:45:19;;;;;;;22.27;10.48;;;;;;;4.87;64.27;102850.19;5034267;28;20022;-81
2022/03/25 03:47:45;;;;;;;22.20;10.95;;;;;;;4.86;64.36;102851.00;5034500;28;20552;-82
2022/03/25 03:50:13;;;;;;;22.98;10.23;;;;;;;4.83;64.64;102852.56;5015951;28;20029;-81
2022/03/25 03:52:39;;;;;;;22.05;10.40;;;;;;;4.78;64.75;102855.81;5014416;28;20025;-82
2022/03/25 03:55:07;;;;;;;22.10;10.63;;;;;;;4.72;64.94;102858.16;5014321;28;20026;-82
2022/03/25 03:57:37;;;;;;;22.05;10.00;;;;;;;4.72;64.59;102864.97;5013482;28;20026;-82
2022/03/25 04:00:05;;;;;;;21.60;10.02;;;;;;;4.60;64.45;102845.66;5014645;28;20029;-81
2022/03/25 04:02:30;;;;;;;21.08;10.07;;;;;;;4.64;65.11;102851.78;5031362;28;20037;-81
2022/03/25 04:04:57;;;;;;;21.10;9.43;;;;;;;4.62;64.83;102858.56;5033760;28;20029;-82
2022/03/25 04:07:23;;;;;;;21.92;10.23;;;;;;;4.60;64.94;102850.78;5033669;28;20048;-81
2022/03/25 04:09:48;;;;;;;22.75;10.60;;;;;;;4.55;64.73;102854.88;5032316;28;20033;-81
2022/03/25 04:12:13;;;;;;;21.55;9.88;;;;;;;4.55;65.19;102856.56;5034175;28;20029;-81
2022/03/25 04:14:45;;;;;;;20.63;9.30;;;;;;;4.48;64.67;102851.19;5015670;28;20501;-81
2022/03/25 04:17:13;;;;;;;21.52;9.55;;;;;;;4.41;64.86;102849.13;5010956;28;20095;-81
2022/03/25 04:19:39;;;;;;;20.05;8.90;;;;;;;4.40;65.10;102860.22;5013723;28;20029;-82
2022/03/25 04:22:19;;;;;;;21.05;9.23;;;;;;;4.41;64.74;102863.69;5023984;28;20500;-81
2022/03/25 04:24:44;;;;;;;20.65;9.43;;;;;;;4.35;64.88;102859.16;5031424;28;20498;-81
2022/03/25 04:27:10;;;;;;;20.50;9.15;;;;;;;4.28;64.79;102858.03;5014025;28;20033;-81
2022/03/25 04:29:41;;;;;;;19.70;8.68;;;;;;;4.32;64.93;102875.34;5014122;28;20021;-81
2022/03/25 04:32:10;;;;;;;20.40;9.10;;;;;;;4.30;64.96;102876.97;5013495;28;20025;-81
2022/03/25 04:34:42;;;;;;;22.58;10.18;;;;;;;4.24;65.22;102865.53;5012116;28;20041;-81
2022/03/25 04:37:09;;;;;;;21.58;9.55;;;;;;;4.27;65.56;102875.97;5014014;28;20022;-80
2022/03/25 04:39:34;;;;;;;21.65;10.10;;;;;;;4.23;65.65;102877.50;5032655;28;20076;-81
2022/03/25 04:42:00;;;;;;;21.83;10.05;;;;;;;4.22;65.09;102873.19;5033343;28;20025;-82
2022/03/25 04:44:37;;;;;;;21.88;10.48;;;;;;;4.21;65.46;102871.44;5026636;28;20033;-81
2022/03/25 04:47:03;;;;;;;21.77;10.25;;;;;;;4.16;65.12;102868.66;5033220;28;20413;-82
2022/03/25 04:49:28;;;;;;;22.05;10.32;;;;;;;4.12;65.28;102874.47;5032580;28;20029;-81
2022/03/25 04:51:54;;;;;;;22.30;10.48;;;;;;;4.09;65.24;102876.03;5012593;28;20026;-81
2022/03/25 04:54:19;;;;;;;21.80;9.82;;;;;;;4.02;65.50;102880.00;5013618;28;20037;-81
2022/03/25 04:56:44;;;;;;;22.27;9.60;;;;;;;4.05;65.74;102881.84;5013420;28;20029;-81
2022/03/25 04:59:10;;;;;;;21.88;9.63;;;;;;;3.99;65.66;102875.63;5012796;28;20410;-81
2022/03/25 05:01:35;;;;;;;21.25;10.02;;;;;;;3.98;66.13;102875.53;5013220;28;20103;-81
2022/03/25 05:04:00;;;;;;;22.02;9.73;;;;;;;3.95;65.35;102881.44;5031881;28;20123;-81
2022/03/25 05:06:26;;;;;;;22.15;9.70;;;;;;;3.94;65.85;102886.50;5032099;28;20022;-81
2022/03/25 05:08:51;;;;;;;22.48;10.15;;;;;;;3.90;65.40;102882.91;5032834;28;20447;-81
2022/03/25 05:11:20;;;;;;;22.60;10.50;;;;;;;3.85;65.69;102876.69;5031813;28;20036;-81
2022/03/25 05:13:45;;;;;;;22.88;10.60;;;;;;;3.84;65.90;102880.06;5029626;28;20037;-81
2022/03/25 05:16:10;;;;;;;22.83;10.50;;;;;;;3.82;65.62;102881.69;5021845;28;20032;-81
2022/03/25 05:18:35;;;;;;;23.02;10.48;;;;;;;3.81;65.46;102882.47;5032555;28;20087;-81
2022/03/25 05:21:01;;;;;;;22.88;10.40;;;;;;;3.78;65.88;102882.34;5031778;28;20033;-81
2022/03/25 05:23:27;;;;;;;21.90;9.95;;;;;;;3.75;65.69;102882.22;5033048;28;20018;-81
2022/03/25 05:25:52;;;;;;;21.52;9.80;;;;;;;3.73;65.95;102878.69;5030716;28;20021;-81
2022/03/25 05:28:19;;;;;;;21.92;10.48;;;;;;;3.71;65.66;102878.63;5012075;28;20049;-81
2022/03/25 05:30:44;;;;;;;21.35;9.82;;;;;;;3.70;66.04;102884.56;5019180;28;20025;-81
2022/03/25 05:33:09;;;;;;;21.23;9.55;;;;;;;3.70;66.10;102884.56;5032627;28;20028;-81
2022/03/25 05:35:35;;;;;;;22.60;10.60;;;;;;;3.66;65.97;102886.09;5031706;28;20041;-82
2022/03/25 05:38:00;;;;;;;22.25;10.18;;;;;;;3.63;66.07;102887.66;5030968;28;20481;-81
2022/03/25 05:40:28;;;;;;;22.63;10.60;;;;;;;3.61;66.20;102887.59;5012707;28;20030;-82
2022/03/25 05:42:54;;;;;;;21.95;10.35;;;;;;;3.61;66.39;102894.41;5012071;28;20433;-81
2022/03/25 05:45:20;;;;;;;22.58;10.52;;;;;;;3.57;66.21;102887.38;5012415;28;20026;-81
2022/03/25 05:47:45;;;;;;;21.33;9.47;;;;;;;3.57;66.49;102888.25;5012501;28;20029;-81
2022/03/25 05:50:11;;;;;;;22.98;10.50;;;;;;;3.56;66.43;102894.19;5016776;28;20374;-82
2022/03/25 05:52:38;;;;;;;22.77;10.80;;;;;;;3.57;66.37;102898.50;5031897;28;20147;-82
2022/03/25 05:55:04;;;;;;;22.40;10.40;;;;;;;3.54;66.47;102894.13;5031928;28;20514;-81
2022/03/25 05:57:30;;;;;;;21.80;10.07;;;;;;;3.55;66.46;102895.88;5032366;28;20492;-82
2022/03/25 05:59:58;;;;;;;20.83;9.48;;;;;;;3.58;66.30;102891.72;5034292;28;20048;-81
2022/03/25 06:02:23;;;;;;;23.13;10.38;;;;;;;3.60;66.67;102896.09;5016659;28;20049;-81
2022/03/25 06:04:48;;;;;;;22.08;10.15;;;;;;;3.61;66.50;102899.53;5016799;28;20482;-79
2022/03/25 06:07:13;;;;;;;22.25;9.65;;;;;;;3.64;66.85;102909.97;5016453;28;20029;-80
2022/03/25 06:09:39;;;;;;;21.23;9.73;;;;;;;3.65;66.80;102893.75;5014918;28;20446;-80
2022/03/25 06:12:05;;;;;;;21.48;9.75;;;;;;;3.68;66.71;102904.16;5016358;28;20026;-81
2022/03/25 06:14:30;;;;;;;21.02;9.60;;;;;;;3.71;66.74;102909.44;5015875;28;20101;-81
2022/03/25 06:16:55;;;;;;;22.42;9.75;;;;;;;3.73;67.06;102910.38;5015736;28;20104;-81
2022/03/25 06:19:21;;;;;;;21.58;9.48;;;;;;;3.76;66.55;102913.09;5015746;28;20463;-81
2022/03/25 06:21:49;;;;;;;23.23;10.68;;;;;;;3.81;66.28;102916.78;5031567;28;20030;-81
2022/03/25 06:24:14;;;;;;;22.70;10.65;;;;;;;3.84;66.82;102922.03;5035198;28;20041;-81
2022/03/25 06:26:39;;;;;;;21.63;9.50;;;;;;;3.89;66.85;102916.22;5035693;28;20029;-81
2022/03/25 06:29:05;;;;;;;20.75;9.73;;;;;;;3.95;66.53;102919.06;5035724;28;20041;-81
2022/03/25 06:31:30;;;;;;;21.65;9.70;;;;;;;4.00;66.73;102933.03;5015594;28;20024;-81
2022/03/25 06:33:56;;;;;;;20.52;9.20;;;;;;;4.02;69.91;102929.69;5017378;28;20045;-81
2022/03/25 06:36:22;;;;;;;20.17;9.05;;;;;;;4.09;68.29;102930.00;5016149;28;20034;-83
2022/03/25 06:38:48;;;;;;;18.15;7.80;;;;;;;4.13;67.99;102934.44;5015298;28;20026;-84
2022/03/25 06:41:13;;;;;;;17.85;7.70;;;;;;;4.20;67.35;102935.59;5016506;28;20028;-83
2022/03/25 06:43:39;;;;;;;18.23;7.88;;;;;;;4.23;67.43;102925.47;5015590;28;20064;-81
2022/03/25 06:46:05;;;;;;;18.70;7.40;;;;;;;4.30;67.22;102928.38;5016301;28;20458;-81
2022/03/25 06:48:46;;;;;;;18.23;7.78;;;;;;;4.37;68.09;102918.34;5015848;28;20114;-81
2022/03/25 06:51:12;;;;;;;17.90;7.22;;;;;;;4.43;68.31;102916.06;5015406;28;20033;-81
2022/03/25 06:53:56;;;;;;;19.17;7.50;;;;;;;4.89;69.43;102925.75;5015516;28;20030;-83
2022/03/25 06:56:21;;;;;;;18.08;7.43;;;;;;;6.47;70.09;102930.91;5015636;28;20030;-80
2022/03/25 06:58:53;;;;;;;28.30;14.90;;;;;;;8.77;64.49;102915.47;5015249;28;20050;-81
2022/03/25 07:01:18;;;;;;;29.52;15.45;;;;;;;10.69;60.35;102927.41;5015391;28;20081;-84
2022/03/25 07:03:44;;;;;;;26.40;14.07;;;;;;;12.41;54.54;102928.97;5015497;28;20418;-84
2022/03/25 07:06:09;;;;;;;25.17;13.05;;;;;;;13.69;54.28;102939.53;5014469;28;20113;-84
2022/03/25 07:08:35;;;;;;;27.83;14.45;;;;;;;14.77;50.26;102928.56;5016178;28;20088;-84
2022/03/25 07:11:01;;;;;;;33.00;19.23;;;;;;;15.23;48.16;102935.53;5014351;28;20034;-83
2022/03/25 07:13:27;;;;;;;30.67;17.60;;;;;;;15.58;46.09;102930.22;5014310;28;20052;-83
2022/03/25 07:15:53;;;;;;;30.43;17.70;;;;;;;15.51;46.55;102935.47;5015208;28;20116;-83
2022/03/25 07:18:18;;;;;;;32.92;20.02;;;;;;;15.03;42.87;102933.78;5015388;28;20105;-83
2022/03/25 07:20:44;;;;;;;34.37;20.60;;;;;;;13.94;47.28;102947.50;5015249;28;20520;-83
2022/03/25 07:23:09;;;;;;;33.53;20.53;;;;;;;12.69;49.44;102948.34;5015090;28;20037;-83
2022/03/25 07:25:35;;;;;;;31.43;18.97;;;;;;;11.62;51.30;102944.47;5014739;28;20034;-83
2022/03/25 07:28:02;;;;;;;40.47;25.63;;;;;;;10.48;52.08;102957.31;5014241;28;20092;-83
2022/03/25 07:30:28;;;;;;;37.63;23.55;;;;;;;9.80;54.24;102955.03;5014947;28;20109;-83
2022/03/25 07:32:53;;;;;;;41.60;26.13;;;;;;;9.11;56.95;102956.06;5016090;28;20394;-83
2022/03/25 07:35:19;;;;;;;43.13;28.03;;;;;;;8.67;57.36;102960.09;5013937;28;20032;-84
2022/03/25 07:37:45;;;;;;;44.28;29.40;;;;;;;8.13;59.65;102962.03;5014724;28;20041;-84
2022/03/25 07:40:12;;;;;;;49.50;32.17;;;;;;;7.89;60.32;102968.22;5014625;28;20509;-83
2022/03/25 07:42:40;;;;;;;50.67;32.75;;;;;;;7.62;61.10;102966.53;5013735;28;20109;-83
2022/03/25 07:45:08;;;;;;;52.83;35.25;;;;;;;7.36;63.11;102973.47;5015830;28;20026;-82
2022/03/25 07:47:35;;;;;;;54.58;35.80;;;;;;;7.25;62.06;102971.44;4994097;28;20033;-82
2022/03/25 07:50:00;;;;;;;48.47;31.67;;;;;;;7.23;63.26;102970.50;4995171;28;20539;-82
2022/03/25 07:52:26;;;;;;;52.47;33.40;;;;;;;7.23;63.24;102979.97;4994757;28;20094;-82
2022/03/25 07:54:51;;;;;;;52.43;33.47;;;;;;;7.23;63.51;102988.56;4994420;28;20031;-83
2022/03/25 07:57:17;;;;;;;53.47;34.13;;;;;;;7.21;64.55;102989.34;4995291;28;20038;-83
2022/03/25 07:59:42;;;;;;;56.13;35.87;;;;;;;7.24;63.38;102984.31;5015075;28;20053;-80
2022/03/25 08:02:08;;;;;;;55.83;36.50;;;;;;;7.24;63.65;102990.31;5014449;28;20445;-81
2022/03/25 08:04:36;;;;;;;50.97;33.47;;;;;;;7.35;63.19;102994.97;5015425;28;20033;-82
2022/03/25 08:07:02;;;;;;;55.72;36.50;;;;;;;7.38;63.42;103000.25;5015291;28;20184;-81
2022/03/25 08:09:27;;;;;;;52.53;33.63;;;;;;;7.42;62.68;102995.22;5154422;22;20403;-80
2022/03/25 08:11:53;;;;;;;53.90;34.28;;;;;;;7.50;63.39;103002.34;5033296;28;20052;-80
2022/03/25 08:14:18;;;;;;;54.83;33.97;;;;;;;7.54;63.68;102999.88;5026699;28;20021;-81
2022/03/25 08:16:46;;;;;;;54.03;35.67;;;;;;;7.64;63.06;102995.91;5030377;28;20009;-80
2022/03/25 08:19:12;;;;;;;50.35;32.65;;;;;;;7.75;63.15;102997.94;5019757;28;20034;-82
2022/03/25 08:21:39;;;;;;;53.87;34.93;;;;;;;7.83;62.85;103005.13;5015462;28;20048;-81
2022/03/25 08:29:32;;;;;;;50.08;32.00;;;;;;;8.08;62.59;103011.03;5033235;28;20056;-83
2022/03/25 08:31:58;;;;;;;52.97;35.07;;;;;;;8.24;61.83;103020.13;5033134;28;20021;-83
2022/03/25 08:34:23;;;;;;;53.80;34.90;;;;;;;8.35;61.82;103023.91;5033457;28;20461;-82
2022/03/25 08:36:50;;;;;;;56.47;35.53;;;;;;;8.46;60.33;103020.75;5032982;28;20025;-83
2022/03/25 08:39:16;;;;;;;52.20;32.88;;;;;;;8.52;61.49;103017.50;5032984;28;20473;-84
2022/03/25 08:41:43;;;;;;;52.00;31.80;;;;;;;8.62;60.28;103019.50;5033008;28;20112;-81
2022/03/25 08:44:09;;;;;;;49.00;32.05;;;;;;;8.74;60.53;103022.44;5031191;28;20037;-80
2022/03/25 08:46:35;;;;;;;46.13;29.00;;;;;;;8.90;59.97;103020.25;5033209;28;20034;-81
2022/03/25 08:49:03;;;;;;;44.65;28.05;;;;;;;9.02;59.12;103012.78;5033511;28;20079;-81
2022/03/25 08:51:29;;;;;;;41.22;26.73;;;;;;;9.17;59.25;103012.34;5032614;28;20084;-84
2022/03/25 08:53:54;;;;;;;41.80;26.73;;;;;;;9.32;57.88;103014.44;5033393;28;20029;-79
2022/03/25 08:56:21;;;;;;;45.00;27.43;;;;;;;9.46;57.79;103016.50;5032540;28;20021;-81
2022/03/25 08:58:47;;;;;;;46.35;28.98;;;;;;;9.60;57.06;103020.28;5032189;28;20105;-80
2022/03/25 09:01:12;;;;;;;42.13;26.67;;;;;;;9.74;57.10;103026.66;5022827;28;20156;-84
2022/03/25 09:03:37;;;;;;;43.67;28.00;;;;;;;9.89;56.02;103030.47;5017472;28;20470;-83
2022/03/25 09:06:03;;;;;;;44.17;28.50;;;;;;;9.98;56.38;103028.06;5032564;28;20036;-83
2022/03/25 09:08:28;;;;;;;44.57;26.93;;;;;;;10.11;55.71;103028.34;5032579;28;20077;-85
2022/03/25 09:10:53;;;;;;;45.63;29.10;;;;;;;10.25;54.86;103028.63;5032930;28;20049;-83
2022/03/25 09:13:19;;;;;;;49.03;30.90;;;;;;;10.36;53.54;103030.59;5033476;28;20052;-81
2022/03/25 09:15:45;;;;;;;44.60;29.63;;;;;;;10.49;54.54;103036.06;5033258;28;20432;-79
2022/03/25 09:18:10;;;;;;;41.80;26.63;;;;;;;10.63;54.38;103039.84;5033061;28;20112;-81
2022/03/25 09:20:36;;;;;;;44.60;27.43;;;;;;;10.76;53.57;103038.34;5028022;28;20072;-80
2022/03/25 09:23:01;;;;;;;38.87;24.97;;;;;;;10.87;51.18;103042.84;5033145;28;20053;-81
2022/03/25 09:25:27;;;;;;;41.63;25.43;;;;;;;10.97;52.21;103043.06;5033091;28;20030;-80
2022/03/25 09:31:48;;;;;;;43.17;25.60;;;;;;;11.27;49.99;103047.06;5032763;28;20048;-80
2022/03/25 09:37:15;;;;;;;42.58;26.33;;;;;;;11.51;48.79;103039.66;5032071;28;20439;-81
2022/03/25 09:39:47;;;;;;;37.80;23.50;;;;;;;11.62;50.28;103037.19;5032954;28;20104;-83
2022/03/25 09:42:13;;;;;;;37.30;22.10;;;;;;;11.79;48.77;103038.34;5028827;28;20086;-83
2022/03/25 09:44:40;;;;;;;37.20;22.53;;;;;;;11.95;46.79;103033.34;5032045;28;20108;-81
2022/03/25 09:47:05;;;;;;;;;;;;;;;12.01;47.30;103036.94;5032091;28;20107;-80
2022/03/25 09:49:31;;;;;;;35.97;21.80;;;;;;;12.10;47.08;103027.53;5032539;28;19959;-78
2022/03/25 09:51:59;;;;;;;33.67;20.40;;;;;;;12.22;48.18;103025.06;5032764;28;20022;-83
2022/03/25 09:54:26;;;;;;;36.65;23.20;;;;;;;12.32;46.33;103029.56;5031254;28;20053;-80
2022/03/25 09:56:51;;;;;;;;;;;;;;;12.40;45.32;103029.63;5032819;28;20041;-80
2022/03/25 09:59:17;;;;;;;38.10;23.60;;;;;;;12.46;46.04;103021.03;5032083;28;19913;-80
2022/03/25 10:01:44;;;;;;;34.53;20.35;;;;;;;12.58;45.76;103025.50;5031786;28;20120;-80
2022/03/25 10:04:42;;;;;;;34.67;20.50;;;;;;;12.77;44.66;103029.19;5032662;28;20373;-80
2022/03/25 10:07:22;;;;;;;38.05;23.38;;;;;;;12.76;41.73;103036.13;5032188;28;20026;-80
2022/03/25 10:09:57;;;;;;;34.35;20.75;;;;;;;12.79;43.03;103022.25;5031461;28;20398;-80
2022/03/25 10:12:30;;;;;;;33.92;19.73;;;;;;;12.96;44.44;103019.81;5032130;28;20021;-79
2022/03/25 10:15:17;;;;;;;35.60;21.05;;;;;;;13.03;41.11;103016.44;5031845;28;20029;-79
2022/03/25 10:17:51;;;;;;;32.95;19.30;;;;;;;13.19;43.35;103021.75;5031917;28;20555;-79
2022/03/25 10:20:19;;;;;;;30.35;17.35;;;;;;;13.36;42.72;103020.19;5032133;28;20029;-80
2022/03/25 10:22:56;;;;;;;32.17;18.52;;;;;;;13.57;42.14;103021.22;5031768;28;20096;-83
2022/03/25 10:26:00;;;;;;;34.53;21.02;;;;;;;13.64;40.54;103019.53;5032587;28;20116;-82
2022/03/25 10:28:44;;;;;;;38.17;21.92;;;;;;;13.68;42.51;103018.72;5022244;28;20045;-81
2022/03/25 10:31:13;;;;;;;38.05;23.58;;;;;;;13.67;40.61;103012.59;5031485;28;20017;-86
2022/03/25 10:33:49;;;;;;;35.05;21.35;;;;;;;13.78;42.07;103014.41;5028635;28;20055;-84
2022/03/25 10:36:17;;;;;;;32.00;18.83;;;;;;;13.90;42.84;103011.88;5030139;28;20029;-84
2022/03/25 10:39:00;;;;;;;33.00;19.98;;;;;;;14.13;42.11;103008.50;5032085;28;20084;-85
2022/03/25 10:41:36;;;;;;;31.88;18.98;;;;;;;14.30;41.85;103014.66;5031811;28;20543;-84
2022/03/25 10:44:03;;;;;;;29.27;17.55;;;;;;;14.46;41.78;103012.09;5032559;28;20030;-84
2022/03/25 10:46:28;;;;;;;28.38;15.88;;;;;;;14.64;40.56;103004.28;5035171;28;20052;-84
2022/03/25 10:48:54;;;;;;;31.47;18.93;;;;;;;14.78;38.02;103003.50;5035501;28;20057;-85
2022/03/25 10:51:19;;;;;;;30.87;18.07;;;;;;;14.85;38.84;103009.59;5034313;28;20385;-84
2022/03/25 10:53:54;;;;;;;33.30;20.77;;;;;;;14.70;35.98;103011.31;5035785;28;20075;-85
2022/03/25 10:56:20;;;;;;;34.58;20.35;;;;;;;14.60;37.11;103009.53;5035823;28;20025;-84
2022/03/25 10:58:53;;;;;;;34.93;20.77;;;;;;;14.60;37.82;103013.03;5034966;28;20025;-83
2022/03/25 11:01:19;;;;;;;33.95;20.25;;;;;;;14.60;37.38;103013.03;5034708;28;20025;-83
2022/03/25 11:03:48;;;;;;;32.77;20.77;;;;;;;14.77;37.48;103005.25;5034719;28;20081;-84
2022/03/25 11:06:18;;;;;;;30.67;18.38;;;;;;;14.91;38.58;103007.03;5033424;28;20421;-83
2022/03/25 11:08:47;;;;;;;30.80;18.13;;;;;;;15.06;37.67;103000.91;5035153;28;20485;-84
2022/03/25 11:11:15;;;;;;;32.05;20.05;;;;;;;15.18;37.46;102998.31;5035089;28;20502;-84
2022/03/25 11:13:45;;;;;;;28.27;17.65;;;;;;;15.32;38.42;102997.41;5034610;28;20033;-84
2022/03/25 11:16:18;;;;;;;29.65;17.30;;;;;;;15.46;36.77;102992.19;5036013;28;20351;-84
2022/03/25 11:18:44;;;;;;;31.05;18.80;;;;;;;15.52;37.66;102997.38;5034630;28;20037;-84
2022/03/25 11:21:13;;;;;;;28.60;16.70;;;;;;;15.70;37.33;103001.72;5035317;28;20025;-83
2022/03/25 11:26:24;;;;;;;33.05;20.73;;;;;;;15.68;37.84;102999.13;5157260;22;20049;-83
2022/03/25 11:34:06;;;;;;;34.30;21.17;;;;;;;15.64;34.81;102989.53;5511909;22;20068;-84
2022/03/25 11:36:32;;;;;;;36.75;22.13;;;;;;;15.56;35.54;102983.44;5034394;28;20088;-83